sensor_id;sensor_type;location;lat;lon;timestamp;P1;durP1;ratioP1;P2;durP2;ratioP2
33094;SDS011;19459;53.044;8.910;2023-11-22T00:01:02;14.10;;;8.85;;
33094;SDS011;19459;53.044;8.910;2023-11-22T00:03:29;20.00;;;9.05;;
33094;SDS011;19459;53.044;8.910;2023-11-22T00:05:55;16.92;;;10.05;;
33094;SDS011;19459;53.044;8.910;2023-11-22T00:08:21;19.63;;;10.75;;
33094;SDS011;19459;53.044;8.910;2023-11-22T00:10:46;18.38;;;8.93;;
33094;SDS011;19459;53.044;8.910;2023-11-22T00:13:12;18.58;;;10.23;;
33094;SDS011;19459;53.044;8.910;2023-11-22T00:15:38;18.30;;;10.23;;
33094;SDS011;19459;53.044;8.910;2023-11-22T00:18:04;20.25;;;10.80;;
33094;SDS011;19459;53.044;8.910;2023-11-22T00:20:30;16.70;;;8.68;;
33094;SDS011;19459;53.044;8.910;2023-11-22T00:22:56;19.58;;;10.15;;
33094;SDS011;19459;53.044;8.910;2023-11-22T00:25:22;17.65;;;9.68;;
33094;SDS011;19459;53.044;8.910;2023-11-22T00:27:50;23.08;;;10.50;;
33094;SDS011;19459;53.044;8.910;2023-11-22T00:30:16;21.85;;;9.10;;
33094;SDS011;19459;53.044;8.910;2023-11-22T00:32:42;19.65;;;9.95;;
33094;SDS011;19459;53.044;8.910;2023-11-22T00:35:08;16.88;;;9.18;;
33094;SDS011;19459;53.044;8.910;2023-11-22T00:37:34;17.25;;;9.70;;
33094;SDS011;19459;53.044;8.910;2023-11-22T00:40:00;19.52;;;10.15;;
33094;SDS011;19459;53.044;8.910;2023-11-22T00:42:35;21.73;;;9.50;;
33094;SDS011;19459;53.044;8.910;2023-11-22T00:45:06;16.20;;;9.43;;
33094;SDS011;19459;53.044;8.910;2023-11-22T00:47:33;16.95;;;9.23;;
33094;SDS011;19459;53.044;8.910;2023-11-22T00:49:59;20.60;;;9.95;;
33094;SDS011;19459;53.044;8.910;2023-11-22T00:52:26;13.77;;;9.30;;
33094;SDS011;19459;53.044;8.910;2023-11-22T00:54:52;19.20;;;9.85;;
33094;SDS011;19459;53.044;8.910;2023-11-22T00:57:18;18.38;;;9.48;;
33094;SDS011;19459;53.044;8.910;2023-11-22T00:59:44;15.68;;;9.65;;
33094;SDS011;19459;53.044;8.910;2023-11-22T01:02:09;15.85;;;9.10;;
33094;SDS011;19459;53.044;8.910;2023-11-22T01:04:35;17.52;;;9.43;;
33094;SDS011;19459;53.044;8.910;2023-11-22T01:07:02;18.65;;;9.07;;
33094;SDS011;19459;53.044;8.910;2023-11-22T01:09:34;17.83;;;9.35;;
33094;SDS011;19459;53.044;8.910;2023-11-22T01:12:00;16.88;;;9.30;;
33094;SDS011;19459;53.044;8.910;2023-11-22T01:14:26;17.65;;;9.55;;
33094;SDS011;19459;53.044;8.910;2023-11-22T01:16:53;17.50;;;9.43;;
33094;SDS011;19459;53.044;8.910;2023-11-22T01:19:19;15.30;;;8.80;;
33094;SDS011;19459;53.044;8.910;2023-11-22T01:21:46;15.00;;;9.30;;
33094;SDS011;19459;53.044;8.910;2023-11-22T01:24:15;15.25;;;9.48;;
33094;SDS011;19459;53.044;8.910;2023-11-22T01:26:41;16.17;;;8.65;;
33094;SDS011;19459;53.044;8.910;2023-11-22T01:29:07;20.40;;;9.18;;
33094;SDS011;19459;53.044;8.910;2023-11-22T01:31:33;15.93;;;9.02;;
33094;SDS011;19459;53.044;8.910;2023-11-22T01:34:01;20.35;;;9.63;;
33094;SDS011;19459;53.044;8.910;2023-11-22T01:36:29;13.93;;;8.63;;
33094;SDS011;19459;53.044;8.910;2023-11-22T01:38:55;14.88;;;8.60;;
33094;SDS011;19459;53.044;8.910;2023-11-22T01:41:22;16.52;;;9.98;;
33094;SDS011;19459;53.044;8.910;2023-11-22T01:43:48;16.55;;;9.27;;
33094;SDS011;19459;53.044;8.910;2023-11-22T01:46:22;15.23;;;9.45;;
33094;SDS011;19459;53.044;8.910;2023-11-22T01:48:50;14.45;;;9.52;;
33094;SDS011;19459;53.044;8.910;2023-11-22T01:51:23;16.50;;;9.30;;
33094;SDS011;19459;53.044;8.910;2023-11-22T01:53:50;15.85;;;9.10;;
33094;SDS011;19459;53.044;8.910;2023-11-22T01:56:19;22.83;;;10.80;;
33094;SDS011;19459;53.044;8.910;2023-11-22T01:58:46;17.85;;;9.38;;
33094;SDS011;19459;53.044;8.910;2023-11-22T02:01:12;18.17;;;8.73;;
33094;SDS011;19459;53.044;8.910;2023-11-22T02:03:38;17.00;;;9.10;;
33094;SDS011;19459;53.044;8.910;2023-11-22T02:06:05;13.52;;;9.00;;
33094;SDS011;19459;53.044;8.910;2023-11-22T02:08:31;13.30;;;8.70;;
33094;SDS011;19459;53.044;8.910;2023-11-22T02:10:57;21.40;;;10.30;;
33094;SDS011;19459;53.044;8.910;2023-11-22T02:13:24;15.13;;;9.25;;
33094;SDS011;19459;53.044;8.910;2023-11-22T02:15:50;15.00;;;10.02;;
33094;SDS011;19459;53.044;8.910;2023-11-22T02:18:17;14.65;;;8.52;;
33094;SDS011;19459;53.044;8.910;2023-11-22T02:20:43;17.30;;;9.15;;
33094;SDS011;19459;53.044;8.910;2023-11-22T02:23:09;15.82;;;9.52;;
33094;SDS011;19459;53.044;8.910;2023-11-22T02:25:36;18.42;;;10.18;;
33094;SDS011;19459;53.044;8.910;2023-11-22T02:28:02;18.15;;;8.93;;
33094;SDS011;19459;53.044;8.910;2023-11-22T02:30:28;14.35;;;9.50;;
33094;SDS011;19459;53.044;8.910;2023-11-22T02:32:54;19.73;;;8.07;;
33094;SDS011;19459;53.044;8.910;2023-11-22T02:35:20;14.27;;;8.65;;
33094;SDS011;19459;53.044;8.910;2023-11-22T02:37:46;17.75;;;9.18;;
33094;SDS011;19459;53.044;8.910;2023-11-22T02:42:44;15.43;;;9.05;;
33094;SDS011;19459;53.044;8.910;2023-11-22T02:45:20;16.38;;;8.52;;
33094;SDS011;19459;53.044;8.910;2023-11-22T02:47:50;14.90;;;8.93;;
33094;SDS011;19459;53.044;8.910;2023-11-22T02:50:17;13.25;;;8.75;;
33094;SDS011;19459;53.044;8.910;2023-11-22T02:52:43;15.13;;;8.48;;
33094;SDS011;19459;53.044;8.910;2023-11-22T02:55:09;15.10;;;8.90;;
33094;SDS011;19459;53.044;8.910;2023-11-22T02:57:35;16.30;;;9.07;;
33094;SDS011;19459;53.044;8.910;2023-11-22T03:00:07;15.13;;;9.15;;
33094;SDS011;19459;53.044;8.910;2023-11-22T03:02:38;13.43;;;8.75;;
33094;SDS011;19459;53.044;8.910;2023-11-22T03:05:06;16.50;;;9.02;;
33094;SDS011;19459;53.044;8.910;2023-11-22T03:07:34;14.63;;;8.60;;
33094;SDS011;19459;53.044;8.910;2023-11-22T03:10:00;17.95;;;9.88;;
33094;SDS011;19459;53.044;8.910;2023-11-22T03:12:28;15.02;;;9.40;;
33094;SDS011;19459;53.044;8.910;2023-11-22T03:14:53;18.42;;;9.18;;
33094;SDS011;19459;53.044;8.910;2023-11-22T03:17:23;14.13;;;9.13;;
33094;SDS011;19459;53.044;8.910;2023-11-22T03:19:49;17.52;;;8.93;;
33094;SDS011;19459;53.044;8.910;2023-11-22T03:22:16;16.50;;;9.10;;
33094;SDS011;19459;53.044;8.910;2023-11-22T03:24:42;17.02;;;8.73;;
33094;SDS011;19459;53.044;8.910;2023-11-22T03:27:08;16.20;;;8.70;;
33094;SDS011;19459;53.044;8.910;2023-11-22T03:29:35;16.67;;;9.40;;
33094;SDS011;19459;53.044;8.910;2023-11-22T03:32:03;16.10;;;9.65;;
33094;SDS011;19459;53.044;8.910;2023-11-22T03:34:29;17.38;;;9.48;;
33094;SDS011;19459;53.044;8.910;2023-11-22T03:36:55;15.15;;;9.45;;
33094;SDS011;19459;53.044;8.910;2023-11-22T03:39:22;15.68;;;9.30;;
33094;SDS011;19459;53.044;8.910;2023-11-22T03:41:48;14.57;;;7.63;;
33094;SDS011;19459;53.044;8.910;2023-11-22T03:44:15;12.68;;;7.70;;
33094;SDS011;19459;53.044;8.910;2023-11-22T03:46:42;16.73;;;9.18;;
33094;SDS011;19459;53.044;8.910;2023-11-22T03:49:07;16.95;;;9.55;;
33094;SDS011;19459;53.044;8.910;2023-11-22T03:51:33;16.77;;;8.75;;
33094;SDS011;19459;53.044;8.910;2023-11-22T03:54:00;15.93;;;9.38;;
33094;SDS011;19459;53.044;8.910;2023-11-22T03:56:27;12.18;;;8.18;;
33094;SDS011;19459;53.044;8.910;2023-11-22T03:58:54;15.32;;;8.80;;
33094;SDS011;19459;53.044;8.910;2023-11-22T04:01:20;13.95;;;8.73;;
33094;SDS011;19459;53.044;8.910;2023-11-22T04:03:46;14.38;;;8.93;;
33094;SDS011;19459;53.044;8.910;2023-11-22T04:06:16;13.25;;;8.75;;
33094;SDS011;19459;53.044;8.910;2023-11-22T04:08:44;20.83;;;9.95;;
33094;SDS011;19459;53.044;8.910;2023-11-22T04:11:11;18.35;;;9.73;;
33094;SDS011;19459;53.044;8.910;2023-11-22T04:13:41;25.90;;;11.60;;
33094;SDS011;19459;53.044;8.910;2023-11-22T04:16:07;16.10;;;10.15;;
33094;SDS011;19459;53.044;8.910;2023-11-22T04:18:34;15.48;;;10.00;;
33094;SDS011;19459;53.044;8.910;2023-11-22T04:21:03;17.85;;;9.90;;
33094;SDS011;19459;53.044;8.910;2023-11-22T04:23:30;21.95;;;9.95;;
33094;SDS011;19459;53.044;8.910;2023-11-22T04:25:57;14.52;;;9.45;;
33094;SDS011;19459;53.044;8.910;2023-11-22T04:28:25;18.65;;;9.55;;
33094;SDS011;19459;53.044;8.910;2023-11-22T04:30:52;16.25;;;9.55;;
33094;SDS011;19459;53.044;8.910;2023-11-22T04:33:18;17.52;;;9.95;;
33094;SDS011;19459;53.044;8.910;2023-11-22T04:35:45;13.25;;;9.15;;
33094;SDS011;19459;53.044;8.910;2023-11-22T04:38:13;18.52;;;10.25;;
33094;SDS011;19459;53.044;8.910;2023-11-22T04:40:39;20.00;;;10.50;;
33094;SDS011;19459;53.044;8.910;2023-11-22T04:43:05;18.95;;;10.32;;
33094;SDS011;19459;53.044;8.910;2023-11-22T04:45:31;16.85;;;9.75;;
33094;SDS011;19459;53.044;8.910;2023-11-22T04:47:57;17.13;;;10.63;;
33094;SDS011;19459;53.044;8.910;2023-11-22T04:50:23;20.48;;;11.30;;
33094;SDS011;19459;53.044;8.910;2023-11-22T04:52:49;15.45;;;9.75;;
33094;SDS011;19459;53.044;8.910;2023-11-22T04:55:15;18.08;;;9.13;;
33094;SDS011;19459;53.044;8.910;2023-11-22T04:57:41;20.30;;;10.27;;
33094;SDS011;19459;53.044;8.910;2023-11-22T05:00:07;15.07;;;9.00;;
33094;SDS011;19459;53.044;8.910;2023-11-22T05:02:34;16.33;;;9.40;;
33094;SDS011;19459;53.044;8.910;2023-11-22T05:05:00;15.35;;;9.45;;
33094;SDS011;19459;53.044;8.910;2023-11-22T05:07:26;13.68;;;8.60;;
33094;SDS011;19459;53.044;8.910;2023-11-22T05:09:52;16.35;;;10.43;;
33094;SDS011;19459;53.044;8.910;2023-11-22T05:12:18;18.73;;;10.93;;
33094;SDS011;19459;53.044;8.910;2023-11-22T05:14:43;12.27;;;8.18;;
33094;SDS011;19459;53.044;8.910;2023-11-22T05:17:10;20.15;;;9.48;;
33094;SDS011;19459;53.044;8.910;2023-11-22T05:19:37;16.92;;;8.63;;
33094;SDS011;19459;53.044;8.910;2023-11-22T05:22:03;19.88;;;11.32;;
33094;SDS011;19459;53.044;8.910;2023-11-22T05:24:30;13.30;;;8.35;;
33094;SDS011;19459;53.044;8.910;2023-11-22T05:26:56;15.82;;;10.32;;
33094;SDS011;19459;53.044;8.910;2023-11-22T05:29:42;17.27;;;9.38;;
33094;SDS011;19459;53.044;8.910;2023-11-22T05:32:08;15.20;;;9.63;;
33094;SDS011;19459;53.044;8.910;2023-11-22T05:34:34;15.02;;;9.55;;
33094;SDS011;19459;53.044;8.910;2023-11-22T05:37:00;17.13;;;9.68;;
33094;SDS011;19459;53.044;8.910;2023-11-22T05:39:26;17.75;;;10.18;;
33094;SDS011;19459;53.044;8.910;2023-11-22T05:41:52;23.73;;;10.98;;
33094;SDS011;19459;53.044;8.910;2023-11-22T05:44:19;17.38;;;10.50;;
33094;SDS011;19459;53.044;8.910;2023-11-22T05:46:44;18.40;;;10.07;;
33094;SDS011;19459;53.044;8.910;2023-11-22T05:49:10;15.57;;;10.05;;
33094;SDS011;19459;53.044;8.910;2023-11-22T05:51:36;17.55;;;10.07;;
33094;SDS011;19459;53.044;8.910;2023-11-22T05:54:03;17.60;;;9.40;;
33094;SDS011;19459;53.044;8.910;2023-11-22T05:56:29;18.10;;;10.18;;
33094;SDS011;19459;53.044;8.910;2023-11-22T05:58:55;14.63;;;9.07;;
33094;SDS011;19459;53.044;8.910;2023-11-22T06:01:22;15.10;;;9.50;;
33094;SDS011;19459;53.044;8.910;2023-11-22T06:03:48;21.35;;;10.68;;
33094;SDS011;19459;53.044;8.910;2023-11-22T06:06:14;15.85;;;9.95;;
33094;SDS011;19459;53.044;8.910;2023-11-22T06:08:40;16.73;;;9.73;;
33094;SDS011;19459;53.044;8.910;2023-11-22T06:11:05;19.23;;;10.60;;
33094;SDS011;19459;53.044;8.910;2023-11-22T06:13:32;15.88;;;10.05;;
33094;SDS011;19459;53.044;8.910;2023-11-22T06:15:58;18.50;;;9.63;;
33094;SDS011;19459;53.044;8.910;2023-11-22T06:18:24;19.95;;;11.63;;
33094;SDS011;19459;53.044;8.910;2023-11-22T06:20:55;21.15;;;11.30;;
33094;SDS011;19459;53.044;8.910;2023-11-22T06:23:22;19.67;;;11.13;;
33094;SDS011;19459;53.044;8.910;2023-11-22T06:25:47;17.92;;;11.70;;
33094;SDS011;19459;53.044;8.910;2023-11-22T06:28:13;21.58;;;12.45;;
33094;SDS011;19459;53.044;8.910;2023-11-22T06:30:39;22.50;;;11.57;;
33094;SDS011;19459;53.044;8.910;2023-11-22T06:33:05;25.10;;;12.95;;
33094;SDS011;19459;53.044;8.910;2023-11-22T06:35:31;20.33;;;11.57;;
33094;SDS011;19459;53.044;8.910;2023-11-22T06:37:56;26.23;;;13.07;;
33094;SDS011;19459;53.044;8.910;2023-11-22T06:40:22;28.80;;;13.45;;
33094;SDS011;19459;53.044;8.910;2023-11-22T06:42:48;21.40;;;12.57;;
33094;SDS011;19459;53.044;8.910;2023-11-22T06:45:14;25.60;;;13.20;;
33094;SDS011;19459;53.044;8.910;2023-11-22T06:47:40;20.38;;;12.90;;
33094;SDS011;19459;53.044;8.910;2023-11-22T06:50:09;22.33;;;12.40;;
33094;SDS011;19459;53.044;8.910;2023-11-22T06:52:39;22.15;;;13.80;;
33094;SDS011;19459;53.044;8.910;2023-11-22T06:55:05;27.55;;;12.85;;
33094;SDS011;19459;53.044;8.910;2023-11-22T06:57:37;23.20;;;13.35;;
33094;SDS011;19459;53.044;8.910;2023-11-22T07:00:04;30.05;;;13.60;;
33094;SDS011;19459;53.044;8.910;2023-11-22T07:02:31;22.65;;;13.93;;
33094;SDS011;19459;53.044;8.910;2023-11-22T07:04:57;27.92;;;13.93;;
33094;SDS011;19459;53.044;8.910;2023-11-22T07:07:24;25.30;;;15.32;;
33094;SDS011;19459;53.044;8.910;2023-11-22T07:09:50;28.23;;;15.82;;
33094;SDS011;19459;53.044;8.910;2023-11-22T07:12:16;31.00;;;16.95;;
33094;SDS011;19459;53.044;8.910;2023-11-22T07:14:44;32.15;;;16.13;;
33094;SDS011;19459;53.044;8.910;2023-11-22T07:17:09;31.88;;;17.45;;
33094;SDS011;19459;53.044;8.910;2023-11-22T07:19:35;31.15;;;16.45;;
33094;SDS011;19459;53.044;8.910;2023-11-22T07:22:06;31.85;;;16.17;;
33094;SDS011;19459;53.044;8.910;2023-11-22T07:24:41;29.48;;;16.20;;
33094;SDS011;19459;53.044;8.910;2023-11-22T07:27:09;25.52;;;14.63;;
33094;SDS011;19459;53.044;8.910;2023-11-22T07:29:41;27.38;;;15.55;;
33094;SDS011;19459;53.044;8.910;2023-11-22T07:32:08;23.40;;;14.50;;
33094;SDS011;19459;53.044;8.910;2023-11-22T07:34:35;22.67;;;14.60;;
33094;SDS011;19459;53.044;8.910;2023-11-22T07:37:02;27.02;;;14.90;;
33094;SDS011;19459;53.044;8.910;2023-11-22T07:39:28;22.60;;;13.73;;
33094;SDS011;19459;53.044;8.910;2023-11-22T07:41:54;26.92;;;14.80;;
33094;SDS011;19459;53.044;8.910;2023-11-22T07:44:21;22.25;;;12.55;;
33094;SDS011;19459;53.044;8.910;2023-11-22T07:46:48;22.45;;;14.02;;
33094;SDS011;19459;53.044;8.910;2023-11-22T07:49:15;19.55;;;13.02;;
33094;SDS011;19459;53.044;8.910;2023-11-22T07:51:40;21.38;;;12.82;;
33094;SDS011;19459;53.044;8.910;2023-11-22T07:54:06;24.65;;;13.18;;
33094;SDS011;19459;53.044;8.910;2023-11-22T07:56:33;20.55;;;13.68;;
33094;SDS011;19459;53.044;8.910;2023-11-22T07:58:59;23.15;;;13.73;;
33094;SDS011;19459;53.044;8.910;2023-11-22T08:01:25;22.15;;;12.93;;
33094;SDS011;19459;53.044;8.910;2023-11-22T08:03:56;23.80;;;14.27;;
33094;SDS011;19459;53.044;8.910;2023-11-22T08:06:22;20.38;;;14.00;;
33094;SDS011;19459;53.044;8.910;2023-11-22T08:08:48;23.30;;;14.80;;
33094;SDS011;19459;53.044;8.910;2023-11-22T08:11:14;27.85;;;14.48;;
33094;SDS011;19459;53.044;8.910;2023-11-22T08:13:40;25.88;;;14.98;;
33094;SDS011;19459;53.044;8.910;2023-11-22T08:16:08;35.22;;;14.02;;
33094;SDS011;19459;53.044;8.910;2023-11-22T08:18:34;26.05;;;14.35;;
33094;SDS011;19459;53.044;8.910;2023-11-22T08:21:00;22.42;;;15.02;;
33094;SDS011;19459;53.044;8.910;2023-11-22T08:23:26;22.17;;;14.77;;
33094;SDS011;19459;53.044;8.910;2023-11-22T08:25:55;24.25;;;14.65;;
33094;SDS011;19459;53.044;8.910;2023-11-22T08:28:22;22.27;;;14.80;;
33094;SDS011;19459;53.044;8.910;2023-11-22T08:30:47;27.00;;;14.88;;
33094;SDS011;19459;53.044;8.910;2023-11-22T08:33:13;26.48;;;15.05;;
33094;SDS011;19459;53.044;8.910;2023-11-22T08:35:39;30.00;;;16.35;;
33094;SDS011;19459;53.044;8.910;2023-11-22T08:38:06;23.63;;;15.30;;
33094;SDS011;19459;53.044;8.910;2023-11-22T08:40:34;22.10;;;15.20;;
33094;SDS011;19459;53.044;8.910;2023-11-22T08:43:04;30.42;;;15.82;;
33094;SDS011;19459;53.044;8.910;2023-11-22T08:45:30;28.77;;;16.25;;
33094;SDS011;19459;53.044;8.910;2023-11-22T08:47:56;30.15;;;16.08;;
33094;SDS011;19459;53.044;8.910;2023-11-22T08:50:23;26.50;;;16.83;;
33094;SDS011;19459;53.044;8.910;2023-11-22T08:52:49;31.55;;;18.83;;
33094;SDS011;19459;53.044;8.910;2023-11-22T08:55:18;30.83;;;17.63;;
33094;SDS011;19459;53.044;8.910;2023-11-22T08:57:47;30.88;;;16.95;;
33094;SDS011;19459;53.044;8.910;2023-11-22T09:00:13;28.50;;;17.92;;
33094;SDS011;19459;53.044;8.910;2023-11-22T09:02:40;32.78;;;18.05;;
33094;SDS011;19459;53.044;8.910;2023-11-22T09:05:06;31.15;;;17.40;;
33094;SDS011;19459;53.044;8.910;2023-11-22T09:07:37;32.83;;;17.65;;
33094;SDS011;19459;53.044;8.910;2023-11-22T09:10:04;28.60;;;17.02;;
33094;SDS011;19459;53.044;8.910;2023-11-22T09:12:38;31.42;;;17.77;;
33094;SDS011;19459;53.044;8.910;2023-11-22T09:15:09;31.60;;;17.98;;
33094;SDS011;19459;53.044;8.910;2023-11-22T09:17:38;34.95;;;18.75;;
33094;SDS011;19459;53.044;8.910;2023-11-22T09:20:17;31.75;;;17.42;;
33094;SDS011;19459;53.044;8.910;2023-11-22T09:25:13;34.85;;;19.45;;
33094;SDS011;19459;53.044;8.910;2023-11-22T09:27:41;35.00;;;19.35;;
33094;SDS011;19459;53.044;8.910;2023-11-22T09:30:12;36.72;;;20.23;;
33094;SDS011;19459;53.044;8.910;2023-11-22T09:33:05;38.63;;;20.67;;
33094;SDS011;19459;53.044;8.910;2023-11-22T09:35:37;35.15;;;18.48;;
33094;SDS011;19459;53.044;8.910;2023-11-22T09:38:05;33.15;;;19.00;;
33094;SDS011;19459;53.044;8.910;2023-11-22T09:40:43;28.58;;;15.63;;
33094;SDS011;19459;53.044;8.910;2023-11-22T09:43:11;27.40;;;16.38;;
33094;SDS011;19459;53.044;8.910;2023-11-22T09:45:40;26.63;;;15.05;;
33094;SDS011;19459;53.044;8.910;2023-11-22T09:48:07;23.02;;;14.90;;
33094;SDS011;19459;53.044;8.910;2023-11-22T09:53:52;41.85;;;20.13;;
33094;SDS011;19459;53.044;8.910;2023-11-22T09:56:22;52.00;;;25.45;;
33094;SDS011;19459;53.044;8.910;2023-11-22T09:58:51;54.47;;;25.88;;
33094;SDS011;19459;53.044;8.910;2023-11-22T10:01:20;37.88;;;18.88;;
33094;SDS011;19459;53.044;8.910;2023-11-22T10:03:48;29.45;;;16.77;;
33094;SDS011;19459;53.044;8.910;2023-11-22T10:06:14;23.02;;;13.05;;
33094;SDS011;19459;53.044;8.910;2023-11-22T10:08:41;20.85;;;11.70;;
33094;SDS011;19459;53.044;8.910;2023-11-22T10:11:07;20.23;;;12.23;;
33094;SDS011;19459;53.044;8.910;2023-11-22T10:13:33;21.92;;;11.30;;
33094;SDS011;19459;53.044;8.910;2023-11-22T10:16:12;16.38;;;10.93;;
33094;SDS011;19459;53.044;8.910;2023-11-22T10:18:47;18.50;;;11.05;;
33094;SDS011;19459;53.044;8.910;2023-11-22T10:21:20;24.95;;;12.68;;
33094;SDS011;19459;53.044;8.910;2023-11-22T10:23:54;23.20;;;12.73;;
33094;SDS011;19459;53.044;8.910;2023-11-22T10:26:21;20.27;;;13.15;;
33094;SDS011;19459;53.044;8.910;2023-11-22T10:28:51;19.65;;;12.73;;
33094;SDS011;19459;53.044;8.910;2023-11-22T10:31:22;19.38;;;12.45;;
33094;SDS011;19459;53.044;8.910;2023-11-22T10:33:49;22.17;;;11.82;;
33094;SDS011;19459;53.044;8.910;2023-11-22T10:36:15;19.85;;;11.80;;
33094;SDS011;19459;53.044;8.910;2023-11-22T10:38:47;17.05;;;11.02;;
33094;SDS011;19459;53.044;8.910;2023-11-22T10:41:13;21.75;;;11.82;;
33094;SDS011;19459;53.044;8.910;2023-11-22T10:43:40;14.57;;;9.15;;
33094;SDS011;19459;53.044;8.910;2023-11-22T10:46:07;17.60;;;11.73;;
33094;SDS011;19459;53.044;8.910;2023-11-22T10:48:36;18.00;;;10.25;;
33094;SDS011;19459;53.044;8.910;2023-11-22T10:51:03;13.70;;;9.65;;
33094;SDS011;19459;53.044;8.910;2023-11-22T10:53:31;13.20;;;9.45;;
33094;SDS011;19459;53.044;8.910;2023-11-22T10:56:15;15.55;;;9.23;;
33094;SDS011;19459;53.044;8.910;2023-11-22T11:01:15;12.52;;;8.23;;
33094;SDS011;19459;53.044;8.910;2023-11-22T11:03:44;12.43;;;8.20;;
33094;SDS011;19459;53.044;8.910;2023-11-22T11:06:20;12.52;;;8.35;;
33094;SDS011;19459;53.044;8.910;2023-11-22T11:08:55;13.68;;;9.02;;
33094;SDS011;19459;53.044;8.910;2023-11-22T11:11:25;14.52;;;8.63;;
33094;SDS011;19459;53.044;8.910;2023-11-22T11:13:53;14.93;;;9.18;;
33094;SDS011;19459;53.044;8.910;2023-11-22T11:16:20;10.95;;;7.38;;
33094;SDS011;19459;53.044;8.910;2023-11-22T11:18:47;12.23;;;7.40;;
33094;SDS011;19459;53.044;8.910;2023-11-22T11:21:13;12.20;;;7.28;;
33094;SDS011;19459;53.044;8.910;2023-11-22T11:23:40;12.75;;;7.43;;
33094;SDS011;19459;53.044;8.910;2023-11-22T11:26:14;10.65;;;6.55;;
33094;SDS011;19459;53.044;8.910;2023-11-22T11:28:43;10.63;;;5.95;;
33094;SDS011;19459;53.044;8.910;2023-11-22T11:31:12;10.43;;;6.15;;
33094;SDS011;19459;53.044;8.910;2023-11-22T11:36:21;7.20;;;4.93;;
33094;SDS011;19459;53.044;8.910;2023-11-22T11:38:53;11.07;;;5.07;;
33094;SDS011;19459;53.044;8.910;2023-11-22T11:41:31;7.15;;;4.57;;
33094;SDS011;19459;53.044;8.910;2023-11-22T11:44:02;7.00;;;3.97;;
33094;SDS011;19459;53.044;8.910;2023-11-22T11:46:29;8.18;;;3.42;;
33094;SDS011;19459;53.044;8.910;2023-11-22T11:48:56;6.22;;;3.78;;
33094;SDS011;19459;53.044;8.910;2023-11-22T11:51:26;6.38;;;4.07;;
33094;SDS011;19459;53.044;8.910;2023-11-22T11:53:53;3.83;;;2.95;;
33094;SDS011;19459;53.044;8.910;2023-11-22T11:56:20;7.70;;;3.35;;
33094;SDS011;19459;53.044;8.910;2023-11-22T11:58:47;7.22;;;3.35;;
33094;SDS011;19459;53.044;8.910;2023-11-22T12:01:15;6.40;;;2.95;;
33094;SDS011;19459;53.044;8.910;2023-11-22T12:03:45;4.57;;;3.38;;
33094;SDS011;19459;53.044;8.910;2023-11-22T12:06:17;7.30;;;3.45;;
33094;SDS011;19459;53.044;8.910;2023-11-22T12:08:44;5.70;;;3.58;;
33094;SDS011;19459;53.044;8.910;2023-11-22T12:11:12;6.75;;;3.42;;
33094;SDS011;19459;53.044;8.910;2023-11-22T12:13:39;8.93;;;4.03;;
33094;SDS011;19459;53.044;8.910;2023-11-22T12:16:08;5.50;;;4.00;;
33094;SDS011;19459;53.044;8.910;2023-11-22T12:18:45;10.25;;;4.30;;
33094;SDS011;19459;53.044;8.910;2023-11-22T12:21:14;8.43;;;3.90;;
33094;SDS011;19459;53.044;8.910;2023-11-22T12:23:42;6.03;;;3.85;;
33094;SDS011;19459;53.044;8.910;2023-11-22T12:26:12;8.15;;;4.20;;
33094;SDS011;19459;53.044;8.910;2023-11-22T12:28:40;4.80;;;3.53;;
33094;SDS011;19459;53.044;8.910;2023-11-22T12:31:08;6.07;;;3.72;;
33094;SDS011;19459;53.044;8.910;2023-11-22T12:33:38;6.57;;;3.78;;
33094;SDS011;19459;53.044;8.910;2023-11-22T12:36:06;5.00;;;3.28;;
33094;SDS011;19459;53.044;8.910;2023-11-22T12:38:42;5.43;;;3.60;;
33094;SDS011;19459;53.044;8.910;2023-11-22T12:41:08;4.65;;;3.50;;
33094;SDS011;19459;53.044;8.910;2023-11-22T12:43:34;5.43;;;3.58;;
33094;SDS011;19459;53.044;8.910;2023-11-22T12:46:01;6.90;;;3.42;;
33094;SDS011;19459;53.044;8.910;2023-11-22T12:48:28;8.68;;;3.58;;
33094;SDS011;19459;53.044;8.910;2023-11-22T12:50:55;10.95;;;4.82;;
33094;SDS011;19459;53.044;8.910;2023-11-22T12:53:22;7.38;;;4.10;;
33094;SDS011;19459;53.044;8.910;2023-11-22T12:55:51;8.45;;;4.22;;
33094;SDS011;19459;53.044;8.910;2023-11-22T12:58:19;5.53;;;3.42;;
33094;SDS011;19459;53.044;8.910;2023-11-22T13:00:47;4.10;;;3.35;;
33094;SDS011;19459;53.044;8.910;2023-11-22T13:03:15;4.55;;;3.60;;
33094;SDS011;19459;53.044;8.910;2023-11-22T13:05:41;8.32;;;3.70;;
33094;SDS011;19459;53.044;8.910;2023-11-22T13:08:09;5.30;;;3.78;;
33094;SDS011;19459;53.044;8.910;2023-11-22T13:10:38;8.93;;;3.80;;
33094;SDS011;19459;53.044;8.910;2023-11-22T13:13:25;8.30;;;5.25;;
33094;SDS011;19459;53.044;8.910;2023-11-22T13:15:52;7.07;;;4.63;;
33094;SDS011;19459;53.044;8.910;2023-11-22T13:18:18;4.85;;;3.22;;
33094;SDS011;19459;53.044;8.910;2023-11-22T13:20:45;5.07;;;3.60;;
33094;SDS011;19459;53.044;8.910;2023-11-22T13:23:11;10.20;;;6.00;;
33094;SDS011;19459;53.044;8.910;2023-11-22T13:25:38;9.23;;;4.70;;
33094;SDS011;19459;53.044;8.910;2023-11-22T13:28:06;5.22;;;3.35;;
33094;SDS011;19459;53.044;8.910;2023-11-22T13:30:33;5.63;;;3.85;;
33094;SDS011;19459;53.044;8.910;2023-11-22T13:33:00;7.63;;;3.47;;
33094;SDS011;19459;53.044;8.910;2023-11-22T13:35:27;7.78;;;3.53;;
33094;SDS011;19459;53.044;8.910;2023-11-22T13:37:59;6.45;;;3.85;;
33094;SDS011;19459;53.044;8.910;2023-11-22T13:40:26;6.20;;;3.10;;
33094;SDS011;19459;53.044;8.910;2023-11-22T13:42:55;6.60;;;3.92;;
33094;SDS011;19459;53.044;8.910;2023-11-22T13:45:22;6.30;;;3.80;;
33094;SDS011;19459;53.044;8.910;2023-11-22T13:47:49;6.00;;;2.92;;
33094;SDS011;19459;53.044;8.910;2023-11-22T13:50:19;4.57;;;3.00;;
33094;SDS011;19459;53.044;8.910;2023-11-22T13:52:50;7.07;;;3.33;;
33094;SDS011;19459;53.044;8.910;2023-11-22T13:55:21;5.85;;;2.85;;
33094;SDS011;19459;53.044;8.910;2023-11-22T13:57:52;3.88;;;2.42;;
33094;SDS011;19459;53.044;8.910;2023-11-22T14:00:20;5.40;;;3.10;;
33094;SDS011;19459;53.044;8.910;2023-11-22T14:02:51;6.10;;;3.40;;
33094;SDS011;19459;53.044;8.910;2023-11-22T14:05:24;5.53;;;3.47;;
33094;SDS011;19459;53.044;8.910;2023-11-22T14:07:54;4.75;;;3.13;;
33094;SDS011;19459;53.044;8.910;2023-11-22T14:10:20;6.05;;;3.67;;
33094;SDS011;19459;53.044;8.910;2023-11-22T14:12:47;6.65;;;4.15;;
33094;SDS011;19459;53.044;8.910;2023-11-22T14:15:13;6.32;;;4.53;;
33094;SDS011;19459;53.044;8.910;2023-11-22T14:17:40;5.63;;;4.47;;
33094;SDS011;19459;53.044;8.910;2023-11-22T14:20:15;5.72;;;3.92;;
33094;SDS011;19459;53.044;8.910;2023-11-22T14:22:41;6.55;;;3.42;;
33094;SDS011;19459;53.044;8.910;2023-11-22T14:25:08;7.22;;;3.17;;
33094;SDS011;19459;53.044;8.910;2023-11-22T14:27:39;8.73;;;3.45;;
33094;SDS011;19459;53.044;8.910;2023-11-22T14:30:09;3.78;;;2.47;;
33094;SDS011;19459;53.044;8.910;2023-11-22T14:32:39;4.15;;;3.00;;
33094;SDS011;19459;53.044;8.910;2023-11-22T14:35:05;4.72;;;3.40;;
33094;SDS011;19459;53.044;8.910;2023-11-22T14:37:34;4.88;;;3.45;;
33094;SDS011;19459;53.044;8.910;2023-11-22T14:40:04;5.25;;;3.60;;
33094;SDS011;19459;53.044;8.910;2023-11-22T14:42:39;5.43;;;4.28;;
33094;SDS011;19459;53.044;8.910;2023-11-22T14:45:10;6.70;;;4.40;;
33094;SDS011;19459;53.044;8.910;2023-11-22T14:47:39;5.63;;;3.90;;